首页
METAR-TAF:

METAR-TAF

机场 :

平壤, 朝鲜民主主义人民共和国

平壤順安國際機場

纬度: 39-02N, 经度: 125-47E, 海拔: 36米

METAR: 丢失

时间: 11:52 (03:22 UTC)

预报

该预报发布于5小时和42分钟前的21:40 UTC
预报有效从20日的 00点(UTC)到 20日的 24点(UTC)
风速8节,风向
能見度: 4000
轻雾
成为
从 20日的 02点(UTC)到 20日的 04点(UTC)
风速10节,风向东北
能見度: 6000

TAF: ZKPY 192140Z 2000/2024 01004MPS 4000 BR NSC BECMG 2002/2004 04005MPS 6000 TX03/2006Z TNM07/2022Z

超过4000个机场的气象观测和天气预报(METAR&TAF报告)。

可查询的气象台以黄色和红色小点在地图上表示。

将鼠标移到小点上方,可查看气象台名称。

然后点击查看天气观测和预报。

如需切换地图:点击带黑十字的绿色按钮放大地图;点击带横线的绿色按钮缩小地图;或者点击绿色箭头查看邻近地区的地图。


METAR-TAF: